RYR234 LICJ-LGSK
Flight info
| Callsign | RYR234 |
|---|---|
| Flight time | 1h 40m |
| Altitude | 18000 |
| Route | PAL L869 CDC/N0371F190 L869 LATAN/N0449F370 UL869 KRK UM600 YNN UV651 AGH W58 EVIKO |
| Aircraft | B738/M-SDGIJ1LRWY/SB1 |
Departure
| Time | 2026-04-25 16:21 |
|---|---|
| Airport | Falcone–Borsellino Airport (LICJ) |
Arrival
| Time | 2026-04-25 18:02 |
|---|---|
| Airport | Skiathos Island National Airport (LGSK) |
| Time | Latitude | Longitude | Altitude | Speed | Heading |
|---|---|---|---|---|---|
| 2026-04-25 15:53 | 38.18387 | 13.10593 | 68 ft | 0 kts | 157° |
| 2026-04-25 16:05 | 38.18395 | 13.10589 | 68 ft | 2 kts | 157° |
| 2026-04-25 16:06 | 38.18409 | 13.10582 | 67 ft | 2 kts | 158° |
| 2026-04-25 16:06 | 38.18423 | 13.10578 | 67 ft | 2 kts | 184° |
| 2026-04-25 16:06 | 38.18438 | 13.10582 | 66 ft | 2 kts | 202° |
| 2026-04-25 16:06 | 38.18451 | 13.10592 | 66 ft | 2 kts | 223° |
| 2026-04-25 16:07 | 38.18460 | 13.10607 | 66 ft | 1 kts | 242° |
| 2026-04-25 16:07 | 38.18462 | 13.10611 | 66 ft | 1 kts | 248° |
| 2026-04-25 16:07 | 38.18464 | 13.10617 | 66 ft | 0 kts | 247° |
| 2026-04-25 16:11 | 38.18458 | 13.10599 | 66 ft | 5 kts | 247° |
| 2026-04-25 16:11 | 38.18424 | 13.10530 | 66 ft | 11 kts | 217° |
| 2026-04-25 16:12 | 38.18353 | 13.10489 | 67 ft | 11 kts | 204° |
| 2026-04-25 16:12 | 38.18304 | 13.10403 | 67 ft | 13 kts | 242° |
| 2026-04-25 16:12 | 38.18234 | 13.10361 | 69 ft | 10 kts | 203° |
| 2026-04-25 16:12 | 38.18200 | 13.10308 | 70 ft | 14 kts | 234° |
| 2026-04-25 16:13 | 38.18126 | 13.10108 | 66 ft | 20 kts | 246° |
| 2026-04-25 16:13 | 38.18072 | 13.09936 | 62 ft | 21 kts | 252° |
| 2026-04-25 16:13 | 38.18014 | 13.09758 | 59 ft | 22 kts | 245° |
| 2026-04-25 16:13 | 38.17953 | 13.09580 | 54 ft | 21 kts | 247° |
| 2026-04-25 16:14 | 38.17895 | 13.09402 | 50 ft | 22 kts | 246° |
| 2026-04-25 16:14 | 38.17868 | 13.09323 | 47 ft | 0 kts | 247° |
| 2026-04-25 16:14 | 38.17867 | 13.09317 | 47 ft | 1 kts | 247° |
| 2026-04-25 16:14 | 38.17859 | 13.09296 | 47 ft | 5 kts | 247° |
| 2026-04-25 16:15 | 38.17833 | 13.09215 | 45 ft | 14 kts | 247° |
| 2026-04-25 16:15 | 38.17784 | 13.09079 | 41 ft | 18 kts | 245° |
| 2026-04-25 16:15 | 38.17728 | 13.08928 | 38 ft | 19 kts | 245° |
| 2026-04-25 16:15 | 38.17667 | 13.08888 | 38 ft | 0 kts | 180° |
| 2026-04-25 16:16 | 38.17664 | 13.08886 | 38 ft | 2 kts | 206° |
| 2026-04-25 16:16 | 38.17648 | 13.08874 | 39 ft | 2 kts | 211° |
| 2026-04-25 16:16 | 38.17609 | 13.08843 | 40 ft | 11 kts | 211° |
| 2026-04-25 16:16 | 38.17513 | 13.08768 | 43 ft | 19 kts | 210° |
| 2026-04-25 16:17 | 38.17390 | 13.08704 | 45 ft | 17 kts | 200° |
| 2026-04-25 16:17 | 38.17303 | 13.08663 | 47 ft | 9 kts | 200° |
| 2026-04-25 16:17 | 38.17246 | 13.08637 | 48 ft | 8 kts | 199° |
| 2026-04-25 16:17 | 38.17197 | 13.08615 | 48 ft | 7 kts | 199° |
| 2026-04-25 16:18 | 38.17149 | 13.08594 | 49 ft | 7 kts | 198° |
| 2026-04-25 16:18 | 38.17130 | 13.08587 | 49 ft | 9 kts | 198° |
| 2026-04-25 16:18 | 38.16976 | 13.08524 | 49 ft | 17 kts | 197° |
| 2026-04-25 16:18 | 38.16861 | 13.08477 | 48 ft | 15 kts | 197° |
| 2026-04-25 16:19 | 38.16755 | 13.08441 | 47 ft | 15 kts | 187° |
| 2026-04-25 16:19 | 38.16659 | 13.08470 | 48 ft | 13 kts | 135° |
| 2026-04-25 16:19 | 38.16642 | 13.08521 | 51 ft | 1 kts | 107° |
| 2026-04-25 16:20 | 38.16636 | 13.08555 | 52 ft | 9 kts | 86° |
| 2026-04-25 16:20 | 38.16722 | 13.08620 | 56 ft | 26 kts | 22° |
| 2026-04-25 16:20 | 38.17917 | 13.09299 | 52 ft | 152 kts | 25° |
| 2026-04-25 16:21 | 38.18915 | 13.09837 | 596 ft | 157 kts | 24° |
| 2026-04-25 16:21 | 38.19935 | 13.10390 | 1172 ft | 168 kts | 23° |
| 2026-04-25 16:21 | 38.21072 | 13.10992 | 1594 ft | 189 kts | 22° |
| 2026-04-25 16:21 | 38.22368 | 13.11687 | 1870 ft | 214 kts | 23° |
| 2026-04-25 16:22 | 38.23704 | 13.12455 | 2742 ft | 209 kts | 25° |
| 2026-04-25 16:22 | 38.25003 | 13.13216 | 3559 ft | 206 kts | 27° |
| 2026-04-25 16:22 | 38.26189 | 13.14279 | 4033 ft | 218 kts | 52° |
| 2026-04-25 16:22 | 38.26821 | 13.16017 | 4743 ft | 219 kts | 78° |
| 2026-04-25 16:23 | 38.27092 | 13.17850 | 5555 ft | 216 kts | 80° |
| 2026-04-25 16:23 | 38.27412 | 13.19759 | 6095 ft | 226 kts | 75° |
| 2026-04-25 16:23 | 38.27844 | 13.21658 | 6874 ft | 224 kts | 72° |
| 2026-04-25 16:23 | 38.28265 | 13.23541 | 7559 ft | 226 kts | 73° |
| 2026-04-25 16:24 | 38.28675 | 13.25544 | 7987 ft | 240 kts | 76° |
| 2026-04-25 16:24 | 38.29003 | 13.27613 | 8681 ft | 240 kts | 79° |
| 2026-04-25 16:24 | 38.29322 | 13.29704 | 9184 ft | 249 kts | 71° |
| 2026-04-25 16:24 | 38.29848 | 13.31811 | 9853 ft | 250 kts | 75° |
| 2026-04-25 16:25 | 38.29905 | 13.33997 | 10450 ft | 258 kts | 104° |
| 2026-04-25 16:25 | 38.29402 | 13.35395 | 10907 ft | 263 kts | 124° |
| 2026-04-25 16:25 | 38.27681 | 13.37570 | 11752 ft | 268 kts | 139° |
| 2026-04-25 16:25 | 38.26068 | 13.38781 | 12360 ft | 274 kts | 159° |
| 2026-04-25 16:26 | 38.24203 | 13.39287 | 13007 ft | 277 kts | 175° |
| 2026-04-25 16:26 | 38.22257 | 13.39164 | 13514 ft | 286 kts | 192° |
| 2026-04-25 16:26 | 38.20416 | 13.38133 | 13834 ft | 301 kts | 217° |
| 2026-04-25 16:26 | 38.18803 | 13.36345 | 14200 ft | 315 kts | 224° |
| 2026-04-25 16:27 | 38.17205 | 13.34363 | 14548 ft | 329 kts | 225° |
| 2026-04-25 16:27 | 38.15528 | 13.32280 | 14894 ft | 344 kts | 224° |
| 2026-04-25 16:27 | 38.13766 | 13.30129 | 15274 ft | 359 kts | 224° |
| 2026-04-25 16:27 | 38.11924 | 13.27915 | 15651 ft | 373 kts | 223° |
| 2026-04-25 16:28 | 38.09940 | 13.25715 | 16058 ft | 385 kts | 217° |
| 2026-04-25 16:28 | 38.07609 | 13.23985 | 16662 ft | 390 kts | 201° |
| 2026-04-25 16:28 | 38.04976 | 13.23232 | 17346 ft | 391 kts | 182° |
| 2026-04-25 16:28 | 38.02270 | 13.23437 | 17947 ft | 392 kts | 168° |
| 2026-04-25 16:29 | 37.99661 | 13.24370 | 18119 ft | 395 kts | 157° |
| 2026-04-25 16:29 | 37.97265 | 13.26065 | 18124 ft | 390 kts | 140° |
| 2026-04-25 16:29 | 37.95392 | 13.28531 | 18126 ft | 388 kts | 124° |
| 2026-04-25 16:29 | 37.94093 | 13.31479 | 18118 ft | 386 kts | 111° |
| 2026-04-25 16:30 | 37.93278 | 13.34706 | 18118 ft | 384 kts | 99° |
| 2026-04-25 16:30 | 37.93161 | 13.38052 | 18118 ft | 383 kts | 82° |
| 2026-04-25 16:30 | 37.93798 | 13.41317 | 18119 ft | 382 kts | 68° |
| 2026-04-25 16:30 | 37.94972 | 13.44321 | 18111 ft | 381 kts | 57° |
| 2026-04-25 16:31 | 37.96604 | 13.46914 | 18109 ft | 380 kts | 42° |
| 2026-04-25 16:31 | 37.98754 | 13.48827 | 18115 ft | 379 kts | 28° |
| 2026-04-25 16:31 | 38.01086 | 13.50367 | 18112 ft | 380 kts | 27° |
| 2026-04-25 16:31 | 38.03466 | 13.51916 | 18107 ft | 379 kts | 27° |
| 2026-04-25 16:32 | 38.05787 | 13.53442 | 18111 ft | 380 kts | 28° |
| 2026-04-25 16:32 | 38.08136 | 13.55004 | 18112 ft | 380 kts | 28° |
| 2026-04-25 16:32 | 38.10417 | 13.56666 | 18107 ft | 379 kts | 35° |
| 2026-04-25 16:32 | 38.12331 | 13.58951 | 18110 ft | 379 kts | 51° |
| 2026-04-25 16:33 | 38.13700 | 13.61795 | 18112 ft | 379 kts | 64° |
| 2026-04-25 16:33 | 38.14674 | 13.64930 | 18112 ft | 379 kts | 70° |
| 2026-04-25 16:33 | 38.15468 | 13.68069 | 18110 ft | 379 kts | 72° |
| 2026-04-25 16:33 | 38.16235 | 13.71277 | 18110 ft | 379 kts | 72° |
| 2026-04-25 16:34 | 38.16984 | 13.74477 | 18112 ft | 380 kts | 73° |
| 2026-04-25 16:34 | 38.17728 | 13.77676 | 18109 ft | 379 kts | 73° |
| 2026-04-25 16:34 | 38.18475 | 13.80881 | 18111 ft | 380 kts | 72° |
| 2026-04-25 16:34 | 38.19227 | 13.84101 | 18110 ft | 380 kts | 73° |
| 2026-04-25 16:35 | 38.19982 | 13.87322 | 18110 ft | 381 kts | 72° |
| 2026-04-25 16:35 | 38.20732 | 13.90519 | 18110 ft | 380 kts | 72° |
| 2026-04-25 16:35 | 38.21493 | 13.93760 | 18109 ft | 379 kts | 72° |
| 2026-04-25 16:35 | 38.22236 | 13.96931 | 18108 ft | 379 kts | 72° |
| 2026-04-25 16:36 | 38.22989 | 14.00147 | 18107 ft | 379 kts | 72° |
| 2026-04-25 16:36 | 38.23238 | 14.01208 | 18107 ft | 378 kts | 72° |
| 2026-04-25 16:36 | 38.24486 | 14.06550 | 18103 ft | 379 kts | 72° |
| 2026-04-25 16:36 | 38.25228 | 14.09731 | 18099 ft | 378 kts | 72° |
| 2026-04-25 16:37 | 38.25982 | 14.12965 | 18100 ft | 379 kts | 72° |
| 2026-04-25 16:37 | 38.26723 | 14.16156 | 18104 ft | 379 kts | 72° |
| 2026-04-25 16:37 | 38.27472 | 14.19379 | 18106 ft | 379 kts | 72° |
| 2026-04-25 16:37 | 38.28210 | 14.22561 | 18099 ft | 379 kts | 72° |
| 2026-04-25 16:38 | 38.28963 | 14.25808 | 18101 ft | 379 kts | 72° |
| 2026-04-25 16:38 | 38.29704 | 14.29011 | 18099 ft | 379 kts | 72° |
| 2026-04-25 16:38 | 38.30444 | 14.32213 | 18099 ft | 379 kts | 72° |
| 2026-04-25 16:38 | 38.31187 | 14.35436 | 18098 ft | 380 kts | 72° |
| 2026-04-25 16:39 | 38.31924 | 14.38632 | 18095 ft | 379 kts | 72° |
| 2026-04-25 16:39 | 38.32668 | 14.41865 | 18102 ft | 378 kts | 72° |
| 2026-04-25 16:39 | 38.33405 | 14.45074 | 18095 ft | 379 kts | 72° |
| 2026-04-25 16:39 | 38.34137 | 14.48263 | 18096 ft | 379 kts | 72° |
| 2026-04-25 16:40 | 38.34878 | 14.51499 | 18099 ft | 379 kts | 72° |
| 2026-04-25 16:40 | 38.35609 | 14.54699 | 18094 ft | 378 kts | 72° |
| 2026-04-25 16:40 | 38.36340 | 14.57899 | 18098 ft | 378 kts | 72° |
| 2026-04-25 16:40 | 38.37076 | 14.61123 | 18098 ft | 378 kts | 72° |
| 2026-04-25 16:41 | 38.37810 | 14.64348 | 18089 ft | 378 kts | 72° |
| 2026-04-25 16:41 | 38.38291 | 14.66462 | 18092 ft | 378 kts | 73° |
| 2026-04-25 16:41 | 38.39997 | 14.73976 | 18092 ft | 379 kts | 73° |
| 2026-04-25 16:42 | 38.40723 | 14.77183 | 18096 ft | 379 kts | 73° |
| 2026-04-25 16:42 | 38.41452 | 14.80407 | 18091 ft | 379 kts | 73° |
| 2026-04-25 16:42 | 38.42185 | 14.83653 | 18095 ft | 379 kts | 73° |
| 2026-04-25 16:42 | 38.42904 | 14.86840 | 18086 ft | 378 kts | 73° |
| 2026-04-25 16:43 | 38.43626 | 14.90048 | 18090 ft | 379 kts | 73° |
| 2026-04-25 16:43 | 38.44356 | 14.93292 | 18092 ft | 378 kts | 73° |
| 2026-04-25 16:43 | 38.45078 | 14.96508 | 18096 ft | 378 kts | 73° |
| 2026-04-25 16:43 | 38.45794 | 14.99697 | 18092 ft | 378 kts | 73° |
| 2026-04-25 16:44 | 38.46520 | 15.02938 | 18093 ft | 377 kts | 73° |
| 2026-04-25 16:44 | 38.47233 | 15.06125 | 18086 ft | 377 kts | 73° |
| 2026-04-25 16:44 | 38.47949 | 15.09335 | 18090 ft | 377 kts | 73° |
| 2026-04-25 16:44 | 38.48675 | 15.12591 | 18090 ft | 377 kts | 73° |
| 2026-04-25 16:45 | 38.49383 | 15.15781 | 18087 ft | 376 kts | 73° |
| 2026-04-25 16:45 | 38.50098 | 15.19001 | 18087 ft | 377 kts | 73° |
| 2026-04-25 16:45 | 38.50804 | 15.22189 | 18091 ft | 378 kts | 73° |
| 2026-04-25 16:45 | 38.51515 | 15.25404 | 18090 ft | 377 kts | 73° |
| 2026-04-25 16:46 | 38.52231 | 15.28642 | 18093 ft | 378 kts | 73° |
| 2026-04-25 16:46 | 38.52934 | 15.31834 | 18091 ft | 377 kts | 73° |
| 2026-04-25 16:46 | 38.53646 | 15.35063 | 18091 ft | 377 kts | 73° |
| 2026-04-25 16:46 | 38.54120 | 15.37219 | 18087 ft | 376 kts | 73° |
| 2026-04-25 16:47 | 38.55058 | 15.41482 | 18083 ft | 378 kts | 73° |
| 2026-04-25 16:47 | 38.55786 | 15.44706 | 18086 ft | 377 kts | 72° |
| 2026-04-25 16:47 | 38.56520 | 15.47895 | 18088 ft | 376 kts | 72° |
| 2026-04-25 16:47 | 38.57265 | 15.51103 | 18088 ft | 376 kts | 72° |
| 2026-04-25 16:48 | 38.57995 | 15.54305 | 18089 ft | 376 kts | 73° |
| 2026-04-25 16:48 | 38.58690 | 15.57530 | 18087 ft | 377 kts | 73° |
| 2026-04-25 16:48 | 38.59358 | 15.60740 | 18082 ft | 376 kts | 73° |
| 2026-04-25 16:48 | 38.60024 | 15.63981 | 18085 ft | 376 kts | 73° |
| 2026-04-25 16:49 | 38.60680 | 15.67177 | 18092 ft | 376 kts | 74° |
| 2026-04-25 16:49 | 38.61344 | 15.70393 | 18087 ft | 375 kts | 74° |
| 2026-04-25 16:49 | 38.62011 | 15.73617 | 18087 ft | 376 kts | 74° |
| 2026-04-25 16:49 | 38.62680 | 15.76845 | 18086 ft | 376 kts | 74° |
| 2026-04-25 16:50 | 38.63350 | 15.80078 | 18081 ft | 375 kts | 74° |
| 2026-04-25 16:50 | 38.64022 | 15.83307 | 18087 ft | 376 kts | 74° |
| 2026-04-25 16:50 | 38.64711 | 15.86523 | 18085 ft | 376 kts | 73° |
| 2026-04-25 16:50 | 38.65415 | 15.89748 | 18085 ft | 375 kts | 73° |
| 2026-04-25 16:51 | 38.66112 | 15.92923 | 18085 ft | 376 kts | 73° |
| 2026-04-25 16:51 | 38.66821 | 15.96157 | 18075 ft | 375 kts | 73° |
| 2026-04-25 16:51 | 38.67513 | 15.99328 | 18089 ft | 374 kts | 73° |
| 2026-04-25 16:51 | 38.67974 | 16.01450 | 18082 ft | 373 kts | 73° |
| 2026-04-25 16:52 | 38.68897 | 16.05708 | 18091 ft | 372 kts | 73° |
| 2026-04-25 16:52 | 38.69586 | 16.08898 | 18086 ft | 372 kts | 73° |
| 2026-04-25 16:52 | 38.70277 | 16.12106 | 18088 ft | 373 kts | 73° |
| 2026-04-25 16:52 | 38.70960 | 16.15275 | 18082 ft | 373 kts | 73° |
| 2026-04-25 16:53 | 38.72327 | 16.21640 | 18085 ft | 372 kts | 73° |
| 2026-04-25 16:53 | 38.73017 | 16.24861 | 18089 ft | 373 kts | 73° |
| 2026-04-25 16:53 | 38.73700 | 16.28056 | 18086 ft | 372 kts | 73° |
| 2026-04-25 16:54 | 38.74382 | 16.31250 | 18083 ft | 372 kts | 73° |
| 2026-04-25 16:54 | 38.75058 | 16.34404 | 18079 ft | 372 kts | 73° |
| 2026-04-25 16:54 | 38.75811 | 16.37559 | 18082 ft | 372 kts | 69° |
| 2026-04-25 16:54 | 38.76746 | 16.40678 | 18087 ft | 371 kts | 66° |
| 2026-04-25 16:55 | 38.77760 | 16.43681 | 18089 ft | 371 kts | 65° |
| 2026-04-25 16:55 | 38.78825 | 16.46703 | 18082 ft | 370 kts | 64° |
| 2026-04-25 16:55 | 38.79880 | 16.49684 | 18082 ft | 370 kts | 64° |
| 2026-04-25 16:55 | 38.80932 | 16.52691 | 18077 ft | 370 kts | 65° |
| 2026-04-25 16:56 | 38.81973 | 16.55703 | 18074 ft | 369 kts | 65° |
| 2026-04-25 16:56 | 38.83000 | 16.58707 | 18074 ft | 369 kts | 65° |
| 2026-04-25 16:56 | 38.84019 | 16.61707 | 18076 ft | 370 kts | 65° |
| 2026-04-25 16:56 | 38.85052 | 16.64762 | 18070 ft | 369 kts | 65° |
| 2026-04-25 16:57 | 38.86057 | 16.67747 | 18071 ft | 370 kts | 66° |
| 2026-04-25 16:57 | 38.86742 | 16.69784 | 18065 ft | 369 kts | 66° |
| 2026-04-25 16:57 | 38.88103 | 16.73834 | 18067 ft | 371 kts | 66° |
| 2026-04-25 16:57 | 38.89120 | 16.76864 | 18058 ft | 370 kts | 66° |
| 2026-04-25 16:58 | 38.90131 | 16.79884 | 18050 ft | 370 kts | 66° |
| 2026-04-25 16:58 | 38.91148 | 16.82920 | 18041 ft | 370 kts | 66° |
| 2026-04-25 16:58 | 38.92162 | 16.85945 | 18042 ft | 368 kts | 66° |
| 2026-04-25 16:58 | 38.93164 | 16.88942 | 18053 ft | 369 kts | 66° |
| 2026-04-25 16:59 | 38.94178 | 16.91972 | 18068 ft | 368 kts | 66° |
| 2026-04-25 16:59 | 38.95177 | 16.94961 | 18037 ft | 368 kts | 66° |
| 2026-04-25 16:59 | 38.96187 | 16.97990 | 18021 ft | 368 kts | 66° |
| 2026-04-25 16:59 | 38.97185 | 17.00987 | 18042 ft | 368 kts | 66° |
| 2026-04-25 17:00 | 38.98193 | 17.04015 | 18044 ft | 369 kts | 66° |
| 2026-04-25 17:00 | 38.99157 | 17.07081 | 18042 ft | 368 kts | 69° |
| 2026-04-25 17:00 | 38.99932 | 17.10184 | 18042 ft | 370 kts | 73° |
| 2026-04-25 17:00 | 39.00557 | 17.13411 | 18039 ft | 370 kts | 76° |
| 2026-04-25 17:01 | 39.01090 | 17.16631 | 18051 ft | 371 kts | 77° |
| 2026-04-25 17:01 | 39.01594 | 17.19875 | 18032 ft | 369 kts | 77° |
| 2026-04-25 17:01 | 39.02092 | 17.23116 | 18077 ft | 371 kts | 77° |
| 2026-04-25 17:01 | 39.02601 | 17.26381 | 18032 ft | 370 kts | 77° |
| 2026-04-25 17:02 | 39.03112 | 17.29603 | 18036 ft | 367 kts | 77° |
| 2026-04-25 17:02 | 39.03630 | 17.32837 | 18036 ft | 368 kts | 77° |
| 2026-04-25 17:02 | 39.04162 | 17.36125 | 18033 ft | 370 kts | 76° |
| 2026-04-25 17:03 | 39.05274 | 17.42993 | 18032 ft | 369 kts | 76° |
| 2026-04-25 17:03 | 39.05791 | 17.46184 | 18022 ft | 369 kts | 76° |
| 2026-04-25 17:03 | 39.06317 | 17.49442 | 18020 ft | 369 kts | 76° |
| 2026-04-25 17:03 | 39.06832 | 17.52641 | 18019 ft | 370 kts | 76° |
| 2026-04-25 17:04 | 39.07350 | 17.55867 | 18017 ft | 369 kts | 76° |
| 2026-04-25 17:04 | 39.07872 | 17.59117 | 18019 ft | 370 kts | 76° |
| 2026-04-25 17:04 | 39.08384 | 17.62323 | 18022 ft | 368 kts | 76° |
| 2026-04-25 17:04 | 39.08905 | 17.65586 | 18026 ft | 369 kts | 77° |
| 2026-04-25 17:05 | 39.09414 | 17.68778 | 18028 ft | 367 kts | 77° |
| 2026-04-25 17:05 | 39.10441 | 17.75233 | 18025 ft | 369 kts | 77° |
| 2026-04-25 17:05 | 39.10950 | 17.78448 | 18026 ft | 368 kts | 77° |
| 2026-04-25 17:06 | 39.11463 | 17.81694 | 18029 ft | 367 kts | 77° |
| 2026-04-25 17:06 | 39.11965 | 17.84896 | 18028 ft | 369 kts | 77° |
| 2026-04-25 17:06 | 39.12471 | 17.88136 | 18025 ft | 369 kts | 77° |
| 2026-04-25 17:06 | 39.12968 | 17.91339 | 18025 ft | 368 kts | 77° |
| 2026-04-25 17:07 | 39.13474 | 17.94594 | 18027 ft | 369 kts | 77° |
| 2026-04-25 17:07 | 39.13972 | 17.97803 | 18027 ft | 369 kts | 77° |
| 2026-04-25 17:07 | 39.14474 | 18.01049 | 18023 ft | 368 kts | 77° |
| 2026-04-25 17:07 | 39.14972 | 18.04273 | 18025 ft | 369 kts | 77° |
| 2026-04-25 17:08 | 39.15466 | 18.07475 | 18024 ft | 368 kts | 77° |
| 2026-04-25 17:08 | 39.15966 | 18.10723 | 18024 ft | 368 kts | 77° |
| 2026-04-25 17:08 | 39.16463 | 18.13954 | 18023 ft | 368 kts | 77° |
| 2026-04-25 17:08 | 39.16954 | 18.17155 | 18021 ft | 369 kts | 77° |
| 2026-04-25 17:09 | 39.17452 | 18.20412 | 18020 ft | 368 kts | 77° |
| 2026-04-25 17:09 | 39.17946 | 18.23645 | 18023 ft | 367 kts | 77° |
| 2026-04-25 17:09 | 39.18437 | 18.26870 | 18024 ft | 368 kts | 77° |
| 2026-04-25 17:09 | 39.18928 | 18.30099 | 18023 ft | 368 kts | 77° |
| 2026-04-25 17:10 | 39.19414 | 18.33295 | 18018 ft | 368 kts | 77° |
| 2026-04-25 17:10 | 39.19905 | 18.36537 | 18020 ft | 368 kts | 77° |
| 2026-04-25 17:10 | 39.20392 | 18.39755 | 18016 ft | 368 kts | 77° |
| 2026-04-25 17:10 | 39.20885 | 18.43016 | 18018 ft | 368 kts | 77° |
| 2026-04-25 17:11 | 39.21372 | 18.46247 | 18018 ft | 366 kts | 77° |
| 2026-04-25 17:11 | 39.21859 | 18.49488 | 18018 ft | 369 kts | 77° |
| 2026-04-25 17:11 | 39.22346 | 18.52729 | 18017 ft | 369 kts | 77° |
| 2026-04-25 17:11 | 39.22836 | 18.55996 | 18016 ft | 367 kts | 77° |
| 2026-04-25 17:12 | 39.23316 | 18.59209 | 18016 ft | 368 kts | 77° |
| 2026-04-25 17:12 | 39.23804 | 18.62478 | 18016 ft | 369 kts | 77° |
| 2026-04-25 17:12 | 39.24291 | 18.65748 | 18015 ft | 367 kts | 77° |
| 2026-04-25 17:12 | 39.24765 | 18.68941 | 18015 ft | 366 kts | 77° |
| 2026-04-25 17:13 | 39.25243 | 18.72161 | 18016 ft | 365 kts | 77° |
| 2026-04-25 17:13 | 39.25400 | 18.73226 | 18014 ft | 366 kts | 77° |
| 2026-04-25 17:13 | 39.26199 | 18.78622 | 18013 ft | 366 kts | 77° |
| 2026-04-25 17:13 | 39.26674 | 18.81843 | 18015 ft | 366 kts | 77° |
| 2026-04-25 17:14 | 39.27143 | 18.85025 | 18014 ft | 367 kts | 77° |
| 2026-04-25 17:14 | 39.27616 | 18.88251 | 18013 ft | 367 kts | 77° |
| 2026-04-25 17:14 | 39.28092 | 18.91501 | 18014 ft | 366 kts | 77° |
| 2026-04-25 17:14 | 39.28561 | 18.94707 | 18016 ft | 368 kts | 77° |
| 2026-04-25 17:15 | 39.29034 | 18.97953 | 18015 ft | 367 kts | 77° |
| 2026-04-25 17:15 | 39.29506 | 19.01190 | 18017 ft | 367 kts | 77° |
| 2026-04-25 17:15 | 39.29972 | 19.04401 | 18015 ft | 366 kts | 77° |
| 2026-04-25 17:15 | 39.30440 | 19.07632 | 18011 ft | 365 kts | 77° |
| 2026-04-25 17:16 | 39.30903 | 19.10835 | 18012 ft | 366 kts | 77° |
| 2026-04-25 17:16 | 39.31366 | 19.14045 | 18012 ft | 366 kts | 77° |
| 2026-04-25 17:16 | 39.31828 | 19.17254 | 18012 ft | 365 kts | 77° |
| 2026-04-25 17:16 | 39.32295 | 19.20508 | 18007 ft | 366 kts | 77° |
| 2026-04-25 17:17 | 39.32756 | 19.23729 | 18009 ft | 366 kts | 77° |
| 2026-04-25 17:17 | 39.33216 | 19.26940 | 18008 ft | 365 kts | 77° |
| 2026-04-25 17:17 | 39.33678 | 19.30174 | 18007 ft | 366 kts | 77° |
| 2026-04-25 17:17 | 39.34135 | 19.33374 | 18004 ft | 367 kts | 77° |
| 2026-04-25 17:18 | 39.34598 | 19.36632 | 18004 ft | 366 kts | 77° |
| 2026-04-25 17:18 | 39.35058 | 19.39878 | 18005 ft | 366 kts | 77° |
| 2026-04-25 17:18 | 39.35511 | 19.43075 | 18010 ft | 366 kts | 77° |
| 2026-04-25 17:18 | 39.35964 | 19.46291 | 18007 ft | 365 kts | 77° |
| 2026-04-25 17:19 | 39.36420 | 19.49530 | 18004 ft | 365 kts | 77° |
| 2026-04-25 17:19 | 39.36871 | 19.52732 | 18000 ft | 365 kts | 77° |
| 2026-04-25 17:19 | 39.37323 | 19.55951 | 18007 ft | 366 kts | 77° |
| 2026-04-25 17:19 | 39.37777 | 19.59186 | 17994 ft | 366 kts | 77° |
| 2026-04-25 17:20 | 39.38226 | 19.62399 | 18004 ft | 366 kts | 77° |
| 2026-04-25 17:20 | 39.38676 | 19.65633 | 17989 ft | 366 kts | 78° |
| 2026-04-25 17:20 | 39.39126 | 19.68910 | 17999 ft | 367 kts | 78° |
| 2026-04-25 17:20 | 39.39567 | 19.72150 | 17994 ft | 367 kts | 78° |
| 2026-04-25 17:21 | 39.40006 | 19.75376 | 17990 ft | 365 kts | 78° |
| 2026-04-25 17:21 | 39.40446 | 19.78582 | 17983 ft | 366 kts | 78° |
| 2026-04-25 17:21 | 39.40896 | 19.81840 | 17993 ft | 367 kts | 78° |
| 2026-04-25 17:21 | 39.41340 | 19.85050 | 17985 ft | 366 kts | 78° |
| 2026-04-25 17:22 | 39.41784 | 19.88272 | 17980 ft | 364 kts | 78° |
| 2026-04-25 17:22 | 39.41931 | 19.89338 | 17973 ft | 365 kts | 78° |
| 2026-04-25 17:22 | 39.42675 | 19.94747 | 17971 ft | 365 kts | 78° |
| 2026-04-25 17:22 | 39.43116 | 19.97962 | 17978 ft | 366 kts | 77° |
| 2026-04-25 17:23 | 39.43558 | 20.01199 | 17990 ft | 366 kts | 78° |
| 2026-04-25 17:23 | 39.44030 | 20.04430 | 17985 ft | 366 kts | 76° |
| 2026-04-25 17:23 | 39.44647 | 20.07584 | 17973 ft | 364 kts | 71° |
| 2026-04-25 17:23 | 39.45498 | 20.10686 | 17996 ft | 365 kts | 66° |
| 2026-04-25 17:24 | 39.46478 | 20.13682 | 17990 ft | 364 kts | 64° |
| 2026-04-25 17:24 | 39.47522 | 20.16650 | 17982 ft | 362 kts | 64° |
| 2026-04-25 17:24 | 39.48589 | 20.19623 | 17993 ft | 364 kts | 63° |
| 2026-04-25 17:24 | 39.49640 | 20.22566 | 17973 ft | 364 kts | 64° |
| 2026-04-25 17:25 | 39.50696 | 20.25561 | 17997 ft | 363 kts | 64° |
| 2026-04-25 17:25 | 39.51729 | 20.28528 | 17999 ft | 363 kts | 64° |
| 2026-04-25 17:25 | 39.52764 | 20.31523 | 18005 ft | 363 kts | 64° |
| 2026-04-25 17:25 | 39.53778 | 20.34474 | 18017 ft | 364 kts | 64° |
| 2026-04-25 17:26 | 39.54805 | 20.37465 | 18008 ft | 363 kts | 64° |
| 2026-04-25 17:26 | 39.55821 | 20.40433 | 18026 ft | 363 kts | 64° |
| 2026-04-25 17:26 | 39.56846 | 20.43426 | 18022 ft | 364 kts | 64° |
| 2026-04-25 17:26 | 39.57875 | 20.46437 | 18032 ft | 365 kts | 64° |
| 2026-04-25 17:27 | 39.58894 | 20.49417 | 18027 ft | 364 kts | 64° |
| 2026-04-25 17:27 | 39.59915 | 20.52405 | 18028 ft | 364 kts | 64° |
| 2026-04-25 17:27 | 39.60941 | 20.55416 | 18029 ft | 363 kts | 64° |
| 2026-04-25 17:27 | 39.61274 | 20.56393 | 18031 ft | 363 kts | 64° |
| 2026-04-25 17:28 | 39.62984 | 20.61418 | 18033 ft | 366 kts | 64° |
| 2026-04-25 17:28 | 39.64003 | 20.64416 | 18038 ft | 364 kts | 64° |
| 2026-04-25 17:28 | 39.65027 | 20.67429 | 18040 ft | 365 kts | 65° |
| 2026-04-25 17:28 | 39.66038 | 20.70408 | 18034 ft | 363 kts | 65° |
| 2026-04-25 17:29 | 39.67063 | 20.73431 | 18041 ft | 364 kts | 65° |
| 2026-04-25 17:29 | 39.68077 | 20.76423 | 18040 ft | 364 kts | 65° |
| 2026-04-25 17:29 | 39.68972 | 20.79469 | 18042 ft | 365 kts | 71° |
| 2026-04-25 17:29 | 39.69397 | 20.82742 | 18047 ft | 369 kts | 86° |
| 2026-04-25 17:30 | 39.69282 | 20.84945 | 18052 ft | 373 kts | 96° |
| 2026-04-25 17:30 | 39.68425 | 20.89288 | 18054 ft | 376 kts | 104° |
| 2026-04-25 17:30 | 39.67646 | 20.92528 | 18053 ft | 376 kts | 104° |
| 2026-04-25 17:30 | 39.66848 | 20.95748 | 18066 ft | 376 kts | 104° |
| 2026-04-25 17:31 | 39.66048 | 20.98994 | 18057 ft | 377 kts | 104° |
| 2026-04-25 17:31 | 39.65264 | 21.02218 | 18059 ft | 376 kts | 104° |
| 2026-04-25 17:31 | 39.64481 | 21.05467 | 18058 ft | 377 kts | 104° |
| 2026-04-25 17:31 | 39.63709 | 21.08696 | 18079 ft | 376 kts | 103° |
| 2026-04-25 17:32 | 39.62941 | 21.11923 | 18081 ft | 377 kts | 103° |
| 2026-04-25 17:32 | 39.62175 | 21.15147 | 18086 ft | 376 kts | 104° |
| 2026-04-25 17:32 | 39.61402 | 21.18392 | 18085 ft | 374 kts | 104° |
| 2026-04-25 17:32 | 39.60636 | 21.21610 | 18087 ft | 375 kts | 104° |
| 2026-04-25 17:33 | 39.59863 | 21.24845 | 18093 ft | 375 kts | 104° |
| 2026-04-25 17:33 | 39.59090 | 21.28073 | 18078 ft | 374 kts | 103° |
| 2026-04-25 17:33 | 39.58324 | 21.31269 | 18087 ft | 376 kts | 104° |
| 2026-04-25 17:33 | 39.57547 | 21.34505 | 18086 ft | 375 kts | 104° |
| 2026-04-25 17:34 | 39.56777 | 21.37702 | 18083 ft | 374 kts | 104° |
| 2026-04-25 17:34 | 39.56001 | 21.40923 | 18074 ft | 374 kts | 104° |
| 2026-04-25 17:34 | 39.55228 | 21.44129 | 18072 ft | 373 kts | 103° |
| 2026-04-25 17:34 | 39.54458 | 21.47319 | 18076 ft | 374 kts | 103° |
| 2026-04-25 17:35 | 39.53684 | 21.50523 | 18066 ft | 373 kts | 103° |
| 2026-04-25 17:35 | 39.52914 | 21.53706 | 18058 ft | 374 kts | 103° |
| 2026-04-25 17:35 | 39.52135 | 21.56922 | 18063 ft | 372 kts | 103° |
| 2026-04-25 17:35 | 39.51365 | 21.60093 | 18050 ft | 371 kts | 104° |
| 2026-04-25 17:36 | 39.50590 | 21.63285 | 18050 ft | 372 kts | 103° |
| 2026-04-25 17:36 | 39.49815 | 21.66470 | 18047 ft | 373 kts | 104° |
| 2026-04-25 17:36 | 39.49041 | 21.69653 | 18041 ft | 372 kts | 104° |
| 2026-04-25 17:36 | 39.48263 | 21.72841 | 18044 ft | 373 kts | 104° |
| 2026-04-25 17:37 | 39.47480 | 21.76047 | 18039 ft | 372 kts | 104° |
| 2026-04-25 17:37 | 39.46695 | 21.79253 | 18035 ft | 372 kts | 104° |
| 2026-04-25 17:37 | 39.45920 | 21.82417 | 18041 ft | 373 kts | 104° |
| 2026-04-25 17:37 | 39.45135 | 21.85618 | 18040 ft | 373 kts | 104° |
| 2026-04-25 17:38 | 39.44357 | 21.88782 | 18033 ft | 371 kts | 104° |
| 2026-04-25 17:38 | 39.44090 | 21.89867 | 18036 ft | 372 kts | 104° |
| 2026-04-25 17:38 | 39.42788 | 21.95155 | 18037 ft | 370 kts | 104° |
| 2026-04-25 17:38 | 39.42011 | 21.98307 | 18037 ft | 370 kts | 104° |
| 2026-04-25 17:39 | 39.41232 | 22.01463 | 18040 ft | 370 kts | 104° |
| 2026-04-25 17:39 | 39.40454 | 22.04607 | 18035 ft | 370 kts | 104° |
| 2026-04-25 17:39 | 39.39668 | 22.07783 | 18035 ft | 371 kts | 104° |
| 2026-04-25 17:39 | 39.38878 | 22.10967 | 18037 ft | 371 kts | 104° |
| 2026-04-25 17:40 | 39.38095 | 22.14115 | 18033 ft | 372 kts | 104° |
| 2026-04-25 17:40 | 39.37311 | 22.17268 | 18036 ft | 370 kts | 104° |
| 2026-04-25 17:40 | 39.36521 | 22.20445 | 18042 ft | 371 kts | 104° |
| 2026-04-25 17:40 | 39.35725 | 22.23641 | 18038 ft | 371 kts | 104° |
| 2026-04-25 17:41 | 39.34945 | 22.26771 | 18041 ft | 370 kts | 104° |
| 2026-04-25 17:41 | 39.34149 | 22.29955 | 18038 ft | 370 kts | 104° |
| 2026-04-25 17:41 | 39.33359 | 22.33106 | 18028 ft | 369 kts | 104° |
| 2026-04-25 17:41 | 39.32577 | 22.36230 | 18037 ft | 370 kts | 104° |
| 2026-04-25 17:42 | 39.31789 | 22.39371 | 18034 ft | 369 kts | 104° |
| 2026-04-25 17:42 | 39.30995 | 22.42529 | 18035 ft | 370 kts | 104° |
| 2026-04-25 17:42 | 39.30206 | 22.45668 | 18035 ft | 370 kts | 104° |
| 2026-04-25 17:42 | 39.29413 | 22.48821 | 18030 ft | 371 kts | 104° |
| 2026-04-25 17:43 | 39.28617 | 22.51964 | 18027 ft | 356 kts | 104° |
| 2026-04-25 17:43 | 39.27869 | 22.54902 | 18026 ft | 338 kts | 104° |
| 2026-04-25 17:43 | 39.27152 | 22.57724 | 18029 ft | 327 kts | 104° |
| 2026-04-25 17:43 | 39.26453 | 22.60494 | 18019 ft | 328 kts | 104° |
| 2026-04-25 17:44 | 39.25751 | 22.63292 | 17854 ft | 331 kts | 104° |
| 2026-04-25 17:44 | 39.25037 | 22.66124 | 17464 ft | 328 kts | 104° |
| 2026-04-25 17:44 | 39.24336 | 22.68888 | 17031 ft | 325 kts | 105° |
| 2026-04-25 17:44 | 39.23640 | 22.71619 | 16591 ft | 322 kts | 105° |
| 2026-04-25 17:45 | 39.23178 | 22.73436 | 16295 ft | 321 kts | 105° |
| 2026-04-25 17:45 | 39.22713 | 22.75262 | 15999 ft | 319 kts | 105° |
| 2026-04-25 17:45 | 39.21750 | 22.79809 | 15265 ft | 312 kts | 97° |
| 2026-04-25 17:45 | 39.21473 | 22.82529 | 14836 ft | 308 kts | 92° |
| 2026-04-25 17:46 | 39.21330 | 22.85266 | 14404 ft | 305 kts | 90° |
| 2026-04-25 17:46 | 39.21241 | 22.87998 | 13970 ft | 302 kts | 90° |
| 2026-04-25 17:46 | 39.21161 | 22.90660 | 13549 ft | 299 kts | 90° |
| 2026-04-25 17:46 | 39.21070 | 22.93335 | 13124 ft | 297 kts | 91° |
| 2026-04-25 17:47 | 39.20969 | 22.95996 | 12702 ft | 295 kts | 91° |
| 2026-04-25 17:47 | 39.20861 | 22.98642 | 12284 ft | 293 kts | 91° |
| 2026-04-25 17:47 | 39.20750 | 23.01265 | 11866 ft | 291 kts | 91° |
| 2026-04-25 17:47 | 39.20640 | 23.03877 | 11454 ft | 290 kts | 91° |
| 2026-04-25 17:48 | 39.20420 | 23.09029 | 10632 ft | 288 kts | 91° |
| 2026-04-25 17:48 | 39.20309 | 23.11586 | 10289 ft | 283 kts | 91° |
| 2026-04-25 17:48 | 39.20202 | 23.14056 | 10144 ft | 273 kts | 91° |
| 2026-04-25 17:49 | 39.20097 | 23.16474 | 9948 ft | 265 kts | 91° |
| 2026-04-25 17:49 | 39.19996 | 23.18828 | 9584 ft | 265 kts | 91° |
| 2026-04-25 17:49 | 39.19893 | 23.21197 | 9237 ft | 263 kts | 91° |
| 2026-04-25 17:49 | 39.19793 | 23.23513 | 8903 ft | 261 kts | 91° |
| 2026-04-25 17:50 | 39.19691 | 23.25833 | 8574 ft | 260 kts | 91° |
| 2026-04-25 17:50 | 39.19588 | 23.28161 | 8240 ft | 259 kts | 91° |
| 2026-04-25 17:50 | 39.19485 | 23.30472 | 7906 ft | 257 kts | 91° |
| 2026-04-25 17:50 | 39.19383 | 23.32761 | 7571 ft | 256 kts | 91° |
| 2026-04-25 17:51 | 39.19281 | 23.35017 | 7245 ft | 254 kts | 91° |
| 2026-04-25 17:51 | 39.19179 | 23.37290 | 6916 ft | 253 kts | 91° |
| 2026-04-25 17:51 | 39.19077 | 23.39546 | 6592 ft | 251 kts | 91° |
| 2026-04-25 17:51 | 39.18977 | 23.41768 | 6262 ft | 247 kts | 91° |
| 2026-04-25 17:52 | 39.18877 | 23.43937 | 6010 ft | 241 kts | 91° |
| 2026-04-25 17:52 | 39.18845 | 23.44659 | 5971 ft | 243 kts | 91° |
| 2026-04-25 17:52 | 39.18675 | 23.48389 | 5543 ft | 253 kts | 91° |
| 2026-04-25 17:52 | 39.18570 | 23.50653 | 5226 ft | 249 kts | 91° |
| 2026-04-25 17:53 | 39.18469 | 23.52828 | 4912 ft | 239 kts | 91° |
| 2026-04-25 17:53 | 39.18314 | 23.54905 | 4673 ft | 229 kts | 99° |
| 2026-04-25 17:53 | 39.17732 | 23.56744 | 4579 ft | 216 kts | 126° |
| 2026-04-25 17:53 | 39.16633 | 23.57914 | 4538 ft | 200 kts | 149° |
| 2026-04-25 17:54 | 39.15381 | 23.58563 | 4489 ft | 188 kts | 163° |
| 2026-04-25 17:54 | 39.14069 | 23.58692 | 4504 ft | 191 kts | 187° |
| 2026-04-25 17:54 | 39.12804 | 23.58143 | 4507 ft | 193 kts | 204° |
| 2026-04-25 17:54 | 39.11623 | 23.57374 | 4499 ft | 186 kts | 206° |
| 2026-04-25 17:55 | 39.10498 | 23.56608 | 4497 ft | 185 kts | 206° |
| 2026-04-25 17:55 | 39.09321 | 23.55825 | 4516 ft | 193 kts | 205° |
| 2026-04-25 17:55 | 39.08101 | 23.55031 | 4124 ft | 204 kts | 206° |
| 2026-04-25 17:55 | 39.06815 | 23.54199 | 3633 ft | 209 kts | 206° |
| 2026-04-25 17:56 | 39.05499 | 23.53347 | 3140 ft | 214 kts | 206° |
| 2026-04-25 17:56 | 39.04178 | 23.52490 | 2648 ft | 216 kts | 206° |
| 2026-04-25 17:56 | 39.02851 | 23.51553 | 2156 ft | 220 kts | 217° |
| 2026-04-25 17:56 | 39.01927 | 23.50020 | 1684 ft | 217 kts | 252° |
| 2026-04-25 17:57 | 39.01837 | 23.48220 | 1585 ft | 194 kts | 287° |
| 2026-04-25 17:57 | 39.02497 | 23.46880 | 1608 ft | 169 kts | 329° |
| 2026-04-25 17:57 | 39.03583 | 23.46502 | 1621 ft | 162 kts | 8° |
| 2026-04-25 17:57 | 39.03955 | 23.46569 | 1625 ft | 162 kts | 12° |
| 2026-04-25 17:58 | 39.05759 | 23.47058 | 1616 ft | 158 kts | 13° |
| 2026-04-25 17:58 | 39.06836 | 23.47352 | 1634 ft | 158 kts | 13° |
| 2026-04-25 17:58 | 39.07908 | 23.47677 | 1738 ft | 157 kts | 16° |
| 2026-04-25 17:58 | 39.08995 | 23.48049 | 1808 ft | 161 kts | 16° |
| 2026-04-25 17:59 | 39.09554 | 23.48206 | 1804 ft | 164 kts | 10° |
| 2026-04-25 17:59 | 39.10390 | 23.48272 | 1671 ft | 158 kts | 356° |
| 2026-04-25 18:00 | 39.11486 | 23.48014 | 1256 ft | 157 kts | 349° |
| 2026-04-25 18:00 | 39.12512 | 23.47868 | 936 ft | 146 kts | 10° |
| 2026-04-25 18:00 | 39.13449 | 23.48344 | 605 ft | 145 kts | 27° |
| 2026-04-25 18:00 | 39.14345 | 23.48869 | 379 ft | 141 kts | 19° |
| 2026-04-25 18:01 | 39.15277 | 23.49294 | 269 ft | 139 kts | 18° |
| 2026-04-25 18:01 | 39.16192 | 23.49682 | 164 ft | 138 kts | 18° |
| 2026-04-25 18:01 | 39.17105 | 23.50094 | 23 ft | 137 kts | 18° |
| 2026-04-25 18:01 | 39.17822 | 23.50404 | 60 ft | 66 kts | 22° |
| 2026-04-25 18:02 | 39.17994 | 23.50485 | 67 ft | 8 kts | 17° |
| 2026-04-25 18:02 | 39.18126 | 23.50548 | 71 ft | 31 kts | 20° |
| 2026-04-25 18:02 | 39.18379 | 23.50661 | 67 ft | 31 kts | 23° |
| 2026-04-25 18:02 | 39.18447 | 23.50690 | 66 ft | 0 kts | 270° |
| 2026-04-25 18:03 | 39.18440 | 23.50681 | 66 ft | 4 kts | 215° |
| 2026-04-25 18:03 | 39.18376 | 23.50656 | 68 ft | 17 kts | 195° |
| 2026-04-25 18:03 | 39.18205 | 23.50589 | 70 ft | 34 kts | 198° |
| 2026-04-25 18:03 | 39.17960 | 23.50466 | 67 ft | 35 kts | 221° |
| 2026-04-25 18:04 | 39.17848 | 23.50304 | 61 ft | 10 kts | 198° |
| 2026-04-25 18:04 | 39.17778 | 23.50275 | 57 ft | 10 kts | 197° |
| 2026-04-25 18:04 | 39.17736 | 23.50230 | 55 ft | 0 kts | 240° |
| 2026-04-25 18:05 | 39.17736 | 23.50228 | 55 ft | 0 kts | 255° |
| 2026-04-25 18:05 | 39.17743 | 23.50224 | 55 ft | 3 kts | 17° |
| 2026-04-25 18:05 | 39.17772 | 23.50236 | 57 ft | 6 kts | 348° |
| 2026-04-25 18:05 | 39.17809 | 23.50205 | 59 ft | 4 kts | 324° |
| 2026-04-25 18:06 | 39.17822 | 23.50193 | 60 ft | 0 kts | 323° |